B16 weather

Whitfords Airport
Weedsport, New York, United States

Public forecast

Using degrees Fahrenheit for public forecast. Weather courtesy of forecast.io.

Closest aviation weather report (METAR) to Whitfords Airport

Closest report is Oswego County Airport, 17.5 nm (32.5 km) NNE. Retrieved 2019/11/22 05:54 UTC (24 minutes ago):

KFZY 220554Z AUTO 19011KT 10SM OVC031 09/02 A2970 RMK AO2 SLP058 60003 T00940017 10094 20056 58018

Closest aviation forecast (TAF) to Whitfords Airport

Closest forecast is Syracuse Hancock International Airport, 19.0 nm (35.3 km) E. Retrieved 2019/11/22 06:45 UTC (0 seconds ago):

TAF COR KSYR 220543Z 2206/2306 20011G19KT P6SM OVC040 WS020/23040KT FM220900 22008KT P6SM -SHRA OVC025 FM221200 26015G25KT 6SM BR OVC022 TEMPO 2212/2216 5SM -SHRA OVC016 FM221700 28018G28KT 5SM -SHSNRA BR SCT022 BKN028 FM230100 29010G19KT P6SM BKN040